Time,TemperatureF,DewpointF,PressureIn,WindDirection,WindDirectionDegrees,WindSpeedMPH,WindSpeedGustMPH,Humidity,HourlyPrecipIn,Conditions,Clouds,dailyrainin,SoftwareType,DateUTC
2013-05-17 00:03:00,57.0,48.0,29.86,WSW,254,0.0,7.0,71,0.00,,,0.01,,2013-05-17 04:03:00,
2013-05-17 00:13:00,57.0,48.0,29.86,WSW,254,0.0,7.0,71,0.00,,,0.01,,2013-05-17 04:13:00,
2013-05-17 00:23:00,57.0,47.0,29.86,WSW,254,0.0,7.0,69,0.00,,,0.01,,2013-05-17 04:23:00,
2013-05-17 00:33:00,57.0,47.0,29.86,WSW,254,0.0,7.0,69,0.00,,,0.01,,2013-05-17 04:33:00,
2013-05-17 00:43:00,57.0,47.0,29.86,WSW,254,0.0,7.0,69,0.00,,,0.01,,2013-05-17 04:43:00,
2013-05-17 00:53:00,57.0,47.0,29.86,WSW,254,0.0,7.0,69,0.00,,,0.01,,2013-05-17 04:53:00,
2013-05-17 01:03:00,55.0,48.0,29.88,WSW,254,0.0,0.0,76,0.00,,,0.01,,2013-05-17 05:03:00,
2013-05-17 01:14:00,55.0,48.0,29.88,WSW,254,0.0,0.0,76,0.00,,,0.01,,2013-05-17 05:14:00,
2013-05-17 01:22:00,54.0,47.0,29.88,WSW,254,0.0,0.0,77,0.00,,,0.01,,2013-05-17 05:22:00,
2013-05-17 01:32:00,54.0,46.0,29.88,WSW,254,0.0,0.0,75,0.00,,,0.01,,2013-05-17 05:32:00,
2013-05-17 01:43:00,54.0,46.0,29.88,WSW,254,0.0,0.0,75,0.00,,,0.01,,2013-05-17 05:43:00,
2013-05-17 01:52:00,55.0,47.0,29.88,WSW,254,0.0,0.0,75,0.00,,,0.01,,2013-05-17 05:52:00,
2013-05-17 02:02:00,54.0,47.0,29.88,WSW,254,0.0,0.0,77,0.00,,,0.01,,2013-05-17 06:02:00,
2013-05-17 02:11:00,54.0,47.0,29.88,WSW,254,0.0,0.0,77,0.00,,,0.01,,2013-05-17 06:11:00,
2013-05-17 02:22:00,54.0,47.0,29.88,WSW,254,0.0,0.0,77,0.00,,,0.01,,2013-05-17 06:22:00,
2013-05-17 02:32:00,54.0,47.0,29.88,WSW,254,0.0,0.0,76,0.00,,,0.01,,2013-05-17 06:32:00,
2013-05-17 02:42:00,54.0,47.0,29.88,WSW,254,0.0,0.0,76,0.00,,,0.01,,2013-05-17 06:42:00,
2013-05-17 02:52:00,54.0,46.0,29.89,WSW,254,0.0,0.0,74,0.00,,,0.01,,2013-05-17 06:52:00,
2013-05-17 03:02:00,55.0,44.0,29.90,West,272,0.0,0.0,66,0.00,,,0.01,,2013-05-17 07:02:00,
2013-05-17 03:11:00,55.0,44.0,29.90,West,272,0.0,0.0,66,0.00,,,0.01,,2013-05-17 07:11:00,
2013-05-17 03:21:00,57.0,42.0,29.91,NW,320,0.0,0.0,58,0.00,,,0.01,,2013-05-17 07:21:00,
2013-05-17 03:32:00,57.0,43.0,29.91,NW,321,0.0,0.0,60,0.00,,,0.01,,2013-05-17 07:32:00,
2013-05-17 03:40:00,56.0,42.0,29.92,NW,320,0.0,0.0,60,0.00,,,0.01,,2013-05-17 07:40:00,
2013-05-17 03:43:00,57.0,43.0,29.91,NW,321,0.0,0.0,60,0.00,,,0.01,,2013-05-17 07:43:00,
2013-05-17 03:53:00,57.0,43.0,29.91,NW,321,0.0,0.0,60,0.00,,,0.01,,2013-05-17 07:53:00,
2013-05-17 04:02:00,56.0,42.0,29.92,NW,320,0.0,0.0,60,0.00,,,0.01,,2013-05-17 08:02:00,
2013-05-17 04:12:00,56.0,42.0,29.92,NW,320,0.0,0.0,60,0.00,,,0.01,,2013-05-17 08:12:00,
2013-05-17 04:23:00,56.0,42.0,29.92,NW,320,0.0,0.0,60,0.00,,,0.01,,2013-05-17 08:23:00,
2013-05-17 04:33:00,56.0,42.0,29.92,NW,320,0.0,0.0,60,0.00,,,0.01,,2013-05-17 08:33:00,
2013-05-17 05:02:00,54.0,43.0,29.96,NNW,337,0.0,0.0,65,0.00,,,0.01,,2013-05-17 09:02:00,
2013-05-17 05:12:00,54.0,43.0,29.96,NNW,337,0.0,0.0,65,0.00,,,0.01,,2013-05-17 09:12:00,
2013-05-17 05:23:00,53.0,43.0,29.97,NNW,341,0.0,0.0,69,0.00,,,0.01,,2013-05-17 09:23:00,
2013-05-17 05:33:00,52.0,43.0,29.97,NNW,341,0.0,0.0,72,0.00,,,0.01,,2013-05-17 09:33:00,
2013-05-17 05:42:00,52.0,43.0,29.97,NNW,341,0.0,0.0,72,0.00,,,0.01,,2013-05-17 09:42:00,
2013-05-17 05:53:00,51.0,43.0,29.98,NNW,341,0.0,0.0,74,0.00,,,0.01,,2013-05-17 09:53:00,
2013-05-17 06:03:00,51.0,43.0,29.98,NNW,341,0.0,0.0,75,0.00,,,0.01,,2013-05-17 10:03:00,
2013-05-17 06:12:00,51.0,43.0,29.98,NNW,341,0.0,0.0,75,0.00,,,0.01,,2013-05-17 10:12:00,
2013-05-17 06:23:00,50.0,44.0,30.00,NNW,341,0.0,0.0,79,0.00,,,0.01,,2013-05-17 10:23:00,
2013-05-17 06:33:00,50.0,44.0,30.00,NNW,341,0.0,0.0,79,0.00,,,0.01,,2013-05-17 10:33:00,
2013-05-17 06:42:00,50.0,44.0,30.00,NNW,341,0.0,0.0,79,0.00,,,0.01,,2013-05-17 10:42:00,
2013-05-17 06:54:00,52.0,45.0,30.01,NNW,341,0.0,0.0,77,0.00,,,0.01,,2013-05-17 10:54:00,
2013-05-17 07:02:00,52.0,45.0,30.01,NNW,341,0.0,0.0,77,0.00,,,0.01,,2013-05-17 11:02:00,
2013-05-17 07:12:00,52.0,45.0,30.01,NNW,341,0.0,0.0,77,0.00,,,0.01,,2013-05-17 11:12:00,
2013-05-17 07:23:00,54.0,46.0,30.02,NNW,341,0.0,0.0,74,0.00,,,0.01,,2013-05-17 11:23:00,
2013-05-17 07:34:00,55.0,47.0,30.02,NNW,341,0.0,0.0,73,0.00,,,0.01,,2013-05-17 11:34:00,
2013-05-17 07:42:00,55.0,47.0,30.02,NNW,341,0.0,0.0,73,0.00,,,0.01,,2013-05-17 11:42:00,
2013-05-17 07:53:00,59.0,47.0,30.03,NW,315,7.0,0.0,64,0.00,,,0.01,,2013-05-17 11:53:00,
2013-05-17 08:03:00,60.0,46.0,30.03,NW,315,1.0,0.0,60,0.00,,,0.01,,2013-05-17 12:03:00,
2013-05-17 08:12:00,60.0,45.0,30.04,NNW,333,6.0,0.0,58,0.00,,,0.01,,2013-05-17 12:12:00,
2013-05-17 08:23:00,60.0,45.0,30.04,NNW,333,6.0,0.0,58,0.00,,,0.01,,2013-05-17 12:23:00,
2013-05-17 08:32:00,60.0,45.0,30.04,NNW,333,6.0,0.0,58,0.00,,,0.01,,2013-05-17 12:32:00,
2013-05-17 08:43:00,60.0,45.0,30.04,NNW,333,6.0,0.0,58,0.00,,,0.01,,2013-05-17 12:43:00,
2013-05-17 08:53:00,61.0,45.0,30.04,NNW,346,0.0,11.0,56,0.00,,,0.01,,2013-05-17 12:53:00,
2013-05-17 09:03:00,61.0,45.0,30.05,NNW,327,0.0,11.0,55,0.00,,,0.01,,2013-05-17 13:03:00,
2013-05-17 09:12:00,61.0,45.0,30.05,NNW,327,0.0,11.0,55,0.00,,,0.01,,2013-05-17 13:12:00,
2013-05-17 09:23:00,61.0,45.0,30.06,NNE,22,4.0,11.0,56,0.00,,,0.01,,2013-05-17 13:23:00,
2013-05-17 09:33:00,61.0,45.0,30.06,NW,306,2.0,5.0,56,0.00,,,0.01,,2013-05-17 13:33:00,
2013-05-17 09:42:00,61.0,45.0,30.06,NW,306,2.0,5.0,56,0.00,,,0.01,,2013-05-17 13:42:00,
2013-05-17 09:52:00,62.0,46.0,30.05,NE,37,0.0,5.0,55,0.00,,,0.01,,2013-05-17 13:52:00,
2013-05-17 10:02:00,62.0,46.0,30.06,WNW,300,0.0,5.0,55,0.00,,,0.01,,2013-05-17 14:02:00,
2013-05-17 10:13:00,62.0,46.0,30.06,WNW,300,0.0,5.0,55,0.00,,,0.01,,2013-05-17 14:13:00,
2013-05-17 10:22:00,62.0,45.0,30.06,WNW,303,2.0,5.0,54,0.00,,,0.01,,2013-05-17 14:22:00,
2013-05-17 10:34:00,62.0,45.0,30.06,NNW,340,8.0,8.0,54,0.00,,,0.01,,2013-05-17 14:34:00,
2013-05-17 10:43:00,62.0,45.0,30.06,NNW,340,8.0,8.0,54,0.00,,,0.01,,2013-05-17 14:43:00,
2013-05-17 10:53:00,62.0,45.0,30.06,NNW,340,8.0,8.0,54,0.00,,,0.01,,2013-05-17 14:53:00,
2013-05-17 11:03:00,62.0,45.0,30.08,NW,326,0.0,8.0,53,0.00,,,0.01,,2013-05-17 15:03:00,
2013-05-17 11:14:00,62.0,45.0,30.08,NW,326,0.0,8.0,53,0.00,,,0.01,,2013-05-17 15:14:00,
2013-05-17 11:25:00,62.0,45.0,30.07,NNW,330,0.0,8.0,53,0.00,,,0.01,,2013-05-17 15:25:00,
2013-05-17 11:37:00,63.0,44.0,30.08,NW,314,5.0,13.0,50,0.00,,,0.01,,2013-05-17 15:37:00,
2013-05-17 11:47:00,63.0,44.0,30.08,NW,314,5.0,13.0,50,0.00,,,0.01,,2013-05-17 15:47:00,
2013-05-17 11:57:00,63.0,44.0,30.09,NW,311,0.0,13.0,49,0.00,,,0.01,,2013-05-17 15:57:00,
2013-05-17 12:07:00,64.0,44.0,30.08,NW,306,4.0,13.0,49,0.00,,,0.01,,2013-05-17 16:07:00,
2013-05-17 12:14:00,64.0,44.0,30.08,NW,306,4.0,13.0,49,0.00,,,0.01,,2013-05-17 16:14:00,
2013-05-17 12:26:00,64.0,44.0,30.08,WNW,297,4.0,13.0,49,0.00,,,0.01,,2013-05-17 16:26:00,
2013-05-17 12:37:00,65.0,44.0,30.08,North,352,0.0,10.0,47,0.00,,,0.01,,2013-05-17 16:37:00,
2013-05-17 12:49:00,65.0,44.0,30.08,North,352,0.0,10.0,47,0.00,,,0.01,,2013-05-17 16:49:00,
2013-05-17 12:56:00,66.0,43.0,30.08,NW,311,0.0,10.0,43,0.00,,,0.01,,2013-05-17 16:56:00,
2013-05-17 13:08:00,66.0,43.0,30.08,NW,311,0.0,10.0,43,0.00,,,0.01,,2013-05-17 17:08:00,
2013-05-17 13:19:00,66.0,43.0,30.08,NW,311,0.0,10.0,43,0.00,,,0.01,,2013-05-17 17:19:00,
2013-05-17 13:30:00,67.0,43.0,30.07,NE,51,5.0,10.0,41,0.00,,,0.01,,2013-05-17 17:30:00,
2013-05-17 13:40:00,67.0,-99.9,30.08,NNW,330,0.0,3.0,42,0.00,,,0.01,,2013-05-17 17:40:00,
2013-05-17 13:49:00,67.0,43.0,30.08,NNW,330,0.0,3.0,42,0.00,,,0.01,,2013-05-17 17:49:00,
2013-05-17 14:00:00,67.0,43.0,30.08,NNE,26,0.0,3.0,42,0.00,,,0.01,,2013-05-17 18:00:00,
2013-05-17 14:09:00,67.0,43.0,30.09,NW,326,1.0,3.0,42,0.00,,,0.01,,2013-05-17 18:09:00,
2013-05-17 14:20:00,67.0,43.0,30.09,NW,326,1.0,3.0,42,0.00,,,0.01,,2013-05-17 18:20:00,
2013-05-17 14:30:00,67.0,43.0,30.09,WNW,288,1.0,8.0,42,0.00,,,0.01,,2013-05-17 18:30:00,
2013-05-17 14:40:00,68.0,-99.9,30.09,North,352,3.0,8.0,38,0.00,,,0.01,,2013-05-17 18:40:00,
2013-05-17 14:43:00,68.0,41.0,30.10,NNE,15,0.0,8.0,38,0.00,,,0.01,,2013-05-17 18:43:00,
2013-05-17 14:50:00,-999.0,-99.9,30.09,North,352,3.0,8.0,38,0.00,,,0.01,,2013-05-17 18:50:00,
2013-05-17 15:00:00,68.0,-99.9,30.09,NE,40,0.0,8.0,39,0.00,,,0.01,,2013-05-17 19:00:00,
2013-05-17 15:10:00,68.0,41.0,30.10,NNE,15,0.0,8.0,38,0.00,,,0.01,,2013-05-17 19:10:00,
2013-05-17 15:20:00,68.0,41.0,30.10,NNE,15,0.0,8.0,38,0.00,,,0.01,,2013-05-17 19:20:00,
2013-05-17 15:30:00,68.0,41.0,30.10,NNE,15,0.0,8.0,38,0.00,,,0.01,,2013-05-17 19:30:00,
2013-05-17 15:40:00,68.0,41.0,30.10,NNE,15,0.0,8.0,38,0.00,,,0.01,,2013-05-17 19:40:00,
2013-05-17 16:01:00,-999.0,-99.9,30.10,WSW,251,3.0,5.0,46,0.00,,,0.01,,2013-05-17 20:01:00,
2013-05-17 16:10:00,65.0,47.0,30.10,SW,226,14.0,14.0,53,0.00,,,0.01,,2013-05-17 20:10:00,
2013-05-17 16:20:00,65.0,47.0,30.10,SW,226,14.0,14.0,53,0.00,,,0.01,,2013-05-17 20:20:00,
2013-05-17 16:30:00,63.0,46.0,30.10,SW,222,4.0,5.0,53,0.00,,,0.01,,2013-05-17 20:30:00,
2013-05-17 16:40:00,63.0,46.0,30.10,SW,235,9.0,18.0,54,0.00,,,0.01,,2013-05-17 20:40:00,
2013-05-17 16:50:00,63.0,46.0,30.10,SW,235,9.0,18.0,54,0.00,,,0.01,,2013-05-17 20:50:00,
2013-05-17 16:58:00,63.0,45.0,30.10,SW,233,3.0,18.0,51,0.00,,,0.01,,2013-05-17 20:58:00,
2013-05-17 17:07:00,63.0,45.0,30.11,SW,225,13.0,18.0,52,0.00,,,0.01,,2013-05-17 21:07:00,
2013-05-17 17:17:00,63.0,45.0,30.11,SW,225,13.0,18.0,52,0.00,,,0.01,,2013-05-17 21:17:00,
2013-05-17 17:26:00,62.0,45.0,30.12,WSW,245,6.0,18.0,54,0.00,,,0.01,,2013-05-17 21:26:00,
2013-05-17 17:39:00,62.0,45.0,30.13,WSW,250,8.0,9.0,54,0.00,,,0.01,,2013-05-17 21:39:00,
2013-05-17 17:49:00,61.0,45.0,30.13,SW,223,13.0,13.0,55,0.00,,,0.01,,2013-05-17 21:49:00,
2013-05-17 17:57:00,61.0,45.0,30.13,SW,223,13.0,13.0,55,0.00,,,0.01,,2013-05-17 21:57:00,
2013-05-17 18:07:00,61.0,45.0,30.13,SW,223,13.0,13.0,55,0.00,,,0.01,,2013-05-17 22:07:00,
2013-05-17 18:17:00,61.0,45.0,30.13,SW,223,13.0,13.0,55,0.00,,,0.01,,2013-05-17 22:17:00,
2013-05-17 18:28:00,62.0,45.0,30.14,West,271,7.0,9.0,54,0.00,,,0.01,,2013-05-17 22:28:00,
2013-05-17 18:38:00,62.0,45.0,30.14,SW,216,7.0,8.0,54,0.00,,,0.01,,2013-05-17 22:38:00,
2013-05-17 18:47:00,62.0,45.0,30.14,SW,216,7.0,8.0,54,0.00,,,0.01,,2013-05-17 22:47:00,
2013-05-17 18:54:00,62.0,46.0,30.14,SSW,202,7.0,8.0,55,0.00,,,0.01,,2013-05-17 22:54:00,
2013-05-17 19:04:00,61.0,46.0,30.15,SW,220,3.0,8.0,58,0.00,,,0.01,,2013-05-17 23:04:00,
2013-05-17 19:13:00,61.0,46.0,30.15,SW,220,3.0,8.0,58,0.00,,,0.01,,2013-05-17 23:13:00,
2013-05-17 19:23:00,59.0,46.0,30.16,South,181,0.0,1.0,63,0.00,,,0.01,,2013-05-17 23:23:00,
2013-05-17 19:37:00,59.0,49.0,30.17,East,83,0.0,1.0,69,0.00,,,0.01,,2013-05-17 23:37:00,
2013-05-17 19:47:00,59.0,49.0,30.17,East,83,0.0,1.0,69,0.00,,,0.01,,2013-05-17 23:47:00,
2013-05-17 19:54:00,59.0,49.0,30.17,East,83,0.0,1.0,69,0.00,,,0.01,,2013-05-17 23:54:00,
2013-05-17 20:02:00,57.0,49.0,30.19,ESE,102,0.0,1.0,75,0.00,,,0.01,,2013-05-18 00:02:00,
2013-05-17 20:14:00,57.0,49.0,30.19,ESE,102,0.0,1.0,75,0.00,,,0.01,,2013-05-18 00:14:00,
2013-05-17 20:22:00,56.0,49.0,30.20,ENE,78,0.0,1.0,78,0.00,,,0.01,,2013-05-18 00:22:00,
2013-05-17 20:33:00,55.0,50.0,30.20,SE,125,0.0,2.0,83,0.00,,,0.01,,2013-05-18 00:33:00,
2013-05-17 20:44:00,55.0,50.0,30.20,SE,125,0.0,2.0,83,0.00,,,0.01,,2013-05-18 00:44:00,
2013-05-17 20:54:00,54.0,50.0,30.21,SSE,148,0.0,2.0,86,0.00,,,0.01,,2013-05-18 00:54:00,
2013-05-17 21:03:00,54.0,50.0,30.22,SE,132,0.0,2.0,86,0.00,,,0.01,,2013-05-18 01:03:00,
2013-05-17 21:13:00,54.0,50.0,30.22,SE,132,0.0,2.0,86,0.00,,,0.01,,2013-05-18 01:13:00,
2013-05-17 21:24:00,54.0,50.0,30.24,SE,142,5.0,5.0,86,0.00,,,0.01,,2013-05-18 01:24:00,
2013-05-17 21:32:00,53.0,49.0,30.24,SSE,165,0.0,6.0,86,0.00,,,0.01,,2013-05-18 01:32:00,
2013-05-17 21:43:00,53.0,49.0,30.24,SSE,165,0.0,6.0,86,0.00,,,0.01,,2013-05-18 01:43:00,
2013-05-17 21:52:00,53.0,49.0,30.25,SE,139,0.0,6.0,85,0.00,,,0.01,,2013-05-18 01:52:00,
2013-05-17 22:02:00,53.0,48.0,30.26,SSE,164,0.0,6.0,84,0.00,,,0.01,,2013-05-18 02:02:00,
2013-05-17 22:12:00,53.0,48.0,30.26,SSE,164,0.0,6.0,84,0.00,,,0.01,,2013-05-18 02:12:00,
2013-05-17 22:22:00,53.0,48.0,30.26,SSE,164,0.0,6.0,84,0.00,,,0.01,,2013-05-18 02:22:00,
2013-05-17 22:32:00,53.0,48.0,30.27,SSE,162,0.0,0.0,83,0.00,,,0.01,,2013-05-18 02:32:00,
2013-05-17 22:43:00,53.0,48.0,30.27,SSE,162,0.0,0.0,83,0.00,,,0.01,,2013-05-18 02:43:00,
2013-05-17 22:54:00,52.0,47.0,30.27,SE,127,0.0,0.0,83,0.00,,,0.01,,2013-05-18 02:54:00,
2013-05-17 23:03:00,52.0,47.0,30.27,SE,130,0.0,0.0,83,0.00,,,0.01,,2013-05-18 03:03:00,
2013-05-17 23:12:00,52.0,47.0,30.27,SE,130,0.0,0.0,83,0.00,,,0.01,,2013-05-18 03:12:00,
2013-05-17 23:23:00,52.0,47.0,30.27,ESE,110,0.0,0.0,83,0.00,,,0.01,,2013-05-18 03:23:00,
2013-05-17 23:33:00,51.0,46.0,30.27,ESE,110,0.0,0.0,84,0.00,,,0.00,,2013-05-18 03:33:00,
2013-05-17 23:43:00,51.0,46.0,30.27,ESE,110,0.0,0.0,84,0.00,,,0.00,,2013-05-18 03:43:00,
2013-05-17 23:53:00,50.0,46.0,30.28,ESE,110,0.0,0.0,85,0.00,,,0.00,,2013-05-18 03:53:00,